Sierra Vista Municipal Libby Army Air Field
KFHU : now visible

Airfield :











YOU CAN JOIN US ON...

 
LOGIN :

Register | Disclaimer

   EN    FR    IT 

 









Legend :    VFR   Marginal VFR   IFR   Intensive IFR   Very Intensive IFR
Visi :
Ceiling :
>= 8 km
>= 3000ft
5 to 8 km
1000 to 3000 ft
1500m to 5 km
500 to 1000 ft
800 to 1500m
200 to 500 ft
< 800m
< 200 ft
Symbols :   Thunderstorms  Fog  Heavy snow  Heavy precipitations  Wind > 20 kt






- Airport Elevation : 4719 ft
- IATA code : FHU


KFHU - Sierra Vista Municipal Libby Army Air Field

CURRENT METAR :
  • 090158Z 24013KT 9SM OVC150 32/10 A3002 RMK AO2A SLP082 T03170104

EXPIRED METARs :
  • 082358Z AUTO 12007KT 9SM SCT085 BKN100 OVC130 30/15 A3002 RMK AO2 SLP087 P0004 60004 T02950147 10360 20279 57015

TAF TAF KFHU
Valid from the 08 at 18:00 until the 10 at 00:00 UTC


081809Z 0818/0924 VRB06KT 9999 SCT120 QNH3012INS
BECMG 0820/0821 31009KT 9999 SCT080 BKN120 QNH3008INS
BECMG 0904/0905 25009KT 9999 SCT120 QNH3016INS TX36/0821Z TN20/0912Z
KZAB FIR / North America



MET'MAP, your aeronautical weather chart ! - Copyright ORBIFLY December 2007 - Disclaimer

ORBIFLY MET'MAP TEAM :

Programming & Development : Alexandra Zaïnal
Concept & original design : Baudouin d'Aumeries
Assistance for programming : Marc-Olivier Méhu
Technical & hardware support : Manuel Goepfert

Contact : metmap@orbifly.com




SOURCES & CREDITS :

   NOAA       Earth
Advisory